ěÝzenÝ letovÚho provozu ╚eskÚ republiky
OPMET data - Ceska Republika Aktualizace: 17.05.2022 23:05:30  UTC
SIGMET / AIRMET - NIL
Warning / Vystraha - NIL
AIREP - NIL
REG QNH
REGIONAL QNH FORECAST ISSUED 2022-05-17 20:43 AREA VALID FM/TL QNH/HPA/ : LKAA 172100/180000 1019 =
 
METAR / SPECI
METAR LKBC NIL
METAR LKCS 172300Z AUTO 00000KT CAVOK 10/10 Q1023=
METAR LKCV 172300Z 11003KT CAVOK 09/09 Q1023 NOSIG RMK BLU BLU=
METAR LKKB 172300Z 00000KT CAVOK 11/10 Q1023 RMK BLU=
METAR LKKU NIL
SPECI LKKV 172304Z VRB02KT 9999 0700E R29/1200U BCFG NSC 08/07 Q1023=
SPECI LKLN 172301Z AUTO VRB02KT 4600 BR NCD 12/11 Q1023=
METAR LKMT 172300Z 05004KT CAVOK 10/10 Q1022 NOSIG=
METAR LKNA 172300Z 32006KT CAVOK 11/10 Q1023 RMK BLU=
METAR LKPD 172300Z 00000KT CAVOK 09/09 Q1023 RMK BLACK=
METAR LKPJ 172300Z AUTO 32007KT CAVOK 12/09 Q1022=
METAR LKPR 172300Z 08004KT CAVOK 13/11 Q1023 NOSIG RMK REG QNH 1019=
METAR LKTB 172300Z 33006KT CAVOK 12/10 Q1022 NOSIG=
METAR LKVO NIL
TAF
TAF LKBC NIL
TAF LKCS NIL
TAF LKCV 171700Z 1718/1818 VRB02KT CAVOK      TEMPO 1802/1807 4000 MIFG BR      PROB40 TEMPO 1803/1806 0300 FG VV001      BECMG 1806/1808 09006KT=
TAF LKKB 171700Z 1718/1818 35007KT CAVOK      BECMG 1718/1720 VRB02KT      PROB40 TEMPO 1723/1804 5000 BR      BECMG 1806/1808 11007KT=
TAF LKKU NIL
TAF LKKV 171700Z 1718/1900 06009KT 9999 SCT040      TEMPO 1718/1720 6000 SHRA BKN025TCU      BECMG 1718/1720 VRB02KT      TEMPO 1800/1805 2500 BR      BECMG 1806/1808 15005KT=
TAF LKLN NIL
TAF LKMT 171700Z 1718/1900 02005KT CAVOK      BECMG 1818/1820 20005KT=
TAF LKNA 171700Z 1718/1818 36008KT CAVOK      BECMG 1803/1805 06006KT      BECMG 1811/1813 11008KT=
TAF LKPD NIL
TAF LKPJ NIL
TAF LKPR 171700Z 1718/1900 01008KT 9999 SCT030      TEMPO 1801/1805 VRB02KT 2500 BR      BECMG 1809/1812 16005KT=
TAF LKTB 171700Z 1718/1900 02006KT CAVOK      BECMG 1806/1809 08008KT=
TAF LKVO NIL